Messwerte Tete

Temperatur

Temperatur
°C
1575860400 5.00 5.00 28
1575864000 6.00 6.00 28
1575867600 7.00 7.00 28
1575871200 8.00 8.00 30
1575874800 9.00 9.00 31
1575878400 10.00 10.00
1575882000 11.00 11.00 35
1575885600 12.00 12.00
1575889200 13.00 13.00 37
1575892800 14.00 14.00 38
1575896400 15.00 15.00 39
1575900000 16.00 16.00 37
1575903600 17.00 17.00 32
1575907200 18.00 18.00 32
1575910800 19.00 19.00 32
1575914400 20.00 20.00 33
1575918000 21.00 21.00 30
1575921600 22.00 22.00
1575925200 23.00 23.00 28
1575928800 0.00 0.00
1575932400 1.00 1.00 27
1575936000 2.00 2.00 27
1575939600 3.00 3.00
1575943200 4.00 4.00 27

Aktuellste Messwerte

Wettercharakter
Wetter: wechselnd bewölkt
Temperatur
27 °C
Feuchtigkeit
70 %
Wind
15 km/hWindrichtung: Südost
Luftdruck
1009 hPa
Messzeit: 10. Dezember 2019, 4.00Datenquelle: METAR

Weitere Messstationen in der Nähe

Messstation Temperatur Entfernung
Chileka - 158 km
Lilongwe International Airport - 264 km
Chimoio 22 °C 329 km
Quelimane 25 °C 399 km
Beira 25 °C 428 km

Wind

Windrichtung Böen Mittelwind
° km/h km/h
1575860400 5.00 4.00 - 5.00 130° 5
1575864000 6.00 5.00 - 6.00 140° 5
1575867600 7.00 6.00 - 7.00 160° 15
1575871200 8.00 7.00 - 8.00 170° 10
1575874800 9.00 8.00 - 9.00 150° 5
1575878400 10.00 9.00 - 10.00
1575882000 11.00 10.00 - 11.00 340° 10
1575885600 12.00 11.00 - 12.00
1575889200 13.00 12.00 - 13.00 320° 15
1575892800 14.00 13.00 - 14.00 280° 15
1575896400 15.00 14.00 - 15.00 340° 10
1575900000 16.00 15.00 - 16.00 350° 15
1575903600 17.00 16.00 - 17.00 350° 25
1575907200 18.00 17.00 - 18.00 20° 15
1575910800 19.00 18.00 - 19.00 40° 10
1575914400 20.00 19.00 - 20.00 120° 20
1575918000 21.00 20.00 - 21.00 150° 5
1575921600 22.00 21.00 - 22.00
1575925200 23.00 22.00 - 23.00 150° 10
1575928800 0.00 23.00 - 0.00
1575932400 1.00 0.00 - 1.00 170° 5
1575936000 2.00 1.00 - 2.00 160° 15
1575939600 3.00 2.00 - 3.00
1575943200 4.00 3.00 - 4.00 150° 15

Ihre Wetterstation

Fehlt Ihre Wetterstation auf unserem Portal?

Schreiben Sie an network@meteonews.ch